sensor_id;sensor_type;location;lat;lon;timestamp;P1;durP1;ratioP1;P2;durP2;ratioP2
20697;SDS011;10508;50.956;4.640;2023-03-05T00:01:50;5.68;;;1.73;;
20697;SDS011;10508;50.956;4.640;2023-03-05T00:04:16;3.33;;;1.25;;
20697;SDS011;10508;50.956;4.640;2023-03-05T00:06:42;6.32;;;1.17;;
20697;SDS011;10508;50.956;4.640;2023-03-05T00:09:26;7.65;;;1.48;;
20697;SDS011;10508;50.956;4.640;2023-03-05T00:11:52;5.05;;;1.73;;
20697;SDS011;10508;50.956;4.640;2023-03-05T00:14:17;3.33;;;1.48;;
20697;SDS011;10508;50.956;4.640;2023-03-05T00:16:43;4.72;;;1.40;;
20697;SDS011;10508;50.956;4.640;2023-03-05T00:19:09;3.55;;;1.67;;
20697;SDS011;10508;50.956;4.640;2023-03-05T00:21:36;8.15;;;1.50;;
20697;SDS011;10508;50.956;4.640;2023-03-05T00:24:04;5.88;;;1.45;;
20697;SDS011;10508;50.956;4.640;2023-03-05T00:26:33;11.48;;;2.00;;
20697;SDS011;10508;50.956;4.640;2023-03-05T00:29:00;5.25;;;1.92;;
20697;SDS011;10508;50.956;4.640;2023-03-05T00:31:27;7.10;;;2.00;;
20697;SDS011;10508;50.956;4.640;2023-03-05T00:33:55;5.45;;;1.80;;
20697;SDS011;10508;50.956;4.640;2023-03-05T00:36:22;9.82;;;2.13;;
20697;SDS011;10508;50.956;4.640;2023-03-05T00:38:49;3.72;;;2.00;;
20697;SDS011;10508;50.956;4.640;2023-03-05T00:41:15;5.18;;;1.90;;
20697;SDS011;10508;50.956;4.640;2023-03-05T00:43:41;5.50;;;1.77;;
20697;SDS011;10508;50.956;4.640;2023-03-05T00:46:06;8.82;;;2.80;;
20697;SDS011;10508;50.956;4.640;2023-03-05T00:48:32;4.70;;;2.03;;
20697;SDS011;10508;50.956;4.640;2023-03-05T00:50:58;4.25;;;2.13;;
20697;SDS011;10508;50.956;4.640;2023-03-05T00:53:24;5.50;;;2.00;;
20697;SDS011;10508;50.956;4.640;2023-03-05T00:55:49;7.63;;;2.08;;
20697;SDS011;10508;50.956;4.640;2023-03-05T00:58:15;6.05;;;2.20;;
20697;SDS011;10508;50.956;4.640;2023-03-05T01:00:41;7.88;;;2.80;;
20697;SDS011;10508;50.956;4.640;2023-03-05T01:03:07;4.75;;;2.08;;
20697;SDS011;10508;50.956;4.640;2023-03-05T01:05:32;6.53;;;2.42;;
20697;SDS011;10508;50.956;4.640;2023-03-05T01:07:58;6.95;;;2.22;;
20697;SDS011;10508;50.956;4.640;2023-03-05T01:10:24;6.28;;;2.30;;
20697;SDS011;10508;50.956;4.640;2023-03-05T01:12:51;4.88;;;2.30;;
20697;SDS011;10508;50.956;4.640;2023-03-05T01:15:20;4.55;;;2.15;;
20697;SDS011;10508;50.956;4.640;2023-03-05T01:17:46;5.75;;;1.98;;
20697;SDS011;10508;50.956;4.640;2023-03-05T01:20:12;7.75;;;2.45;;
20697;SDS011;10508;50.956;4.640;2023-03-05T01:22:39;6.13;;;2.55;;
20697;SDS011;10508;50.956;4.640;2023-03-05T01:25:05;4.10;;;2.00;;
20697;SDS011;10508;50.956;4.640;2023-03-05T01:27:31;3.70;;;1.75;;
20697;SDS011;10508;50.956;4.640;2023-03-05T01:29:57;8.63;;;2.00;;
20697;SDS011;10508;50.956;4.640;2023-03-05T01:32:23;8.07;;;2.40;;
20697;SDS011;10508;50.956;4.640;2023-03-05T01:34:48;9.55;;;2.00;;
20697;SDS011;10508;50.956;4.640;2023-03-05T01:37:14;8.88;;;2.30;;
20697;SDS011;10508;50.956;4.640;2023-03-05T01:39:40;6.90;;;2.20;;
20697;SDS011;10508;50.956;4.640;2023-03-05T01:42:06;3.80;;;1.98;;
20697;SDS011;10508;50.956;4.640;2023-03-05T01:44:32;3.92;;;1.80;;
20697;SDS011;10508;50.956;4.640;2023-03-05T01:46:58;3.03;;;1.85;;
20697;SDS011;10508;50.956;4.640;2023-03-05T01:49:25;11.05;;;2.28;;
20697;SDS011;10508;50.956;4.640;2023-03-05T01:51:53;7.15;;;1.90;;
20697;SDS011;10508;50.956;4.640;2023-03-05T01:54:32;3.03;;;1.98;;
20697;SDS011;10508;50.956;4.640;2023-03-05T01:57:12;5.80;;;1.88;;
20697;SDS011;10508;50.956;4.640;2023-03-05T01:59:41;3.90;;;1.88;;
20697;SDS011;10508;50.956;4.640;2023-03-05T02:02:09;8.68;;;3.10;;
20697;SDS011;10508;50.956;4.640;2023-03-05T02:04:36;9.55;;;2.40;;
20697;SDS011;10508;50.956;4.640;2023-03-05T02:07:08;8.07;;;2.20;;
20697;SDS011;10508;50.956;4.640;2023-03-05T02:09:41;4.38;;;2.25;;
20697;SDS011;10508;50.956;4.640;2023-03-05T02:12:08;7.57;;;2.35;;
20697;SDS011;10508;50.956;4.640;2023-03-05T02:14:35;9.77;;;2.53;;
20697;SDS011;10508;50.956;4.640;2023-03-05T02:17:02;9.48;;;2.92;;
20697;SDS011;10508;50.956;4.640;2023-03-05T02:19:27;7.22;;;3.45;;
20697;SDS011;10508;50.956;4.640;2023-03-05T02:21:53;9.23;;;3.10;;
20697;SDS011;10508;50.956;4.640;2023-03-05T02:24:35;13.55;;;2.83;;
20697;SDS011;10508;50.956;4.640;2023-03-05T02:27:02;6.78;;;2.30;;
20697;SDS011;10508;50.956;4.640;2023-03-05T02:29:28;8.07;;;2.78;;
20697;SDS011;10508;50.956;4.640;2023-03-05T02:31:55;3.78;;;2.25;;
20697;SDS011;10508;50.956;4.640;2023-03-05T02:34:21;6.43;;;2.70;;
20697;SDS011;10508;50.956;4.640;2023-03-05T02:36:47;5.13;;;2.42;;
20697;SDS011;10508;50.956;4.640;2023-03-05T02:39:14;6.20;;;3.28;;
20697;SDS011;10508;50.956;4.640;2023-03-05T02:41:41;8.00;;;2.63;;
20697;SDS011;10508;50.956;4.640;2023-03-05T02:44:07;8.32;;;2.83;;
20697;SDS011;10508;50.956;4.640;2023-03-05T02:46:33;10.32;;;3.05;;
20697;SDS011;10508;50.956;4.640;2023-03-05T02:48:58;6.95;;;2.75;;
20697;SDS011;10508;50.956;4.640;2023-03-05T02:51:24;5.90;;;3.10;;
20697;SDS011;10508;50.956;4.640;2023-03-05T02:53:50;4.82;;;2.78;;
20697;SDS011;10508;50.956;4.640;2023-03-05T02:56:16;6.93;;;3.08;;
20697;SDS011;10508;50.956;4.640;2023-03-05T02:58:41;6.85;;;2.72;;
20697;SDS011;10508;50.956;4.640;2023-03-05T03:01:08;6.00;;;2.50;;
20697;SDS011;10508;50.956;4.640;2023-03-05T03:03:34;5.18;;;2.70;;
20697;SDS011;10508;50.956;4.640;2023-03-05T03:06:02;11.32;;;3.15;;
20697;SDS011;10508;50.956;4.640;2023-03-05T03:08:28;7.15;;;2.90;;
20697;SDS011;10508;50.956;4.640;2023-03-05T03:10:53;5.85;;;3.55;;
20697;SDS011;10508;50.956;4.640;2023-03-05T03:13:20;10.93;;;3.17;;
20697;SDS011;10508;50.956;4.640;2023-03-05T03:15:49;4.85;;;2.75;;
20697;SDS011;10508;50.956;4.640;2023-03-05T03:18:14;9.63;;;3.08;;
20697;SDS011;10508;50.956;4.640;2023-03-05T03:20:40;8.98;;;2.75;;
20697;SDS011;10508;50.956;4.640;2023-03-05T03:23:06;5.03;;;2.58;;
20697;SDS011;10508;50.956;4.640;2023-03-05T03:25:32;6.18;;;3.28;;
20697;SDS011;10508;50.956;4.640;2023-03-05T03:27:58;8.68;;;3.72;;
20697;SDS011;10508;50.956;4.640;2023-03-05T03:30:23;9.20;;;3.53;;
20697;SDS011;10508;50.956;4.640;2023-03-05T03:32:50;6.65;;;3.33;;
20697;SDS011;10508;50.956;4.640;2023-03-05T03:35:15;8.80;;;2.85;;
20697;SDS011;10508;50.956;4.640;2023-03-05T03:37:41;11.18;;;4.10;;
20697;SDS011;10508;50.956;4.640;2023-03-05T03:40:07;7.40;;;3.50;;
20697;SDS011;10508;50.956;4.640;2023-03-05T03:42:33;7.55;;;2.92;;
20697;SDS011;10508;50.956;4.640;2023-03-05T03:45:08;8.60;;;3.30;;
20697;SDS011;10508;50.956;4.640;2023-03-05T03:47:34;10.52;;;3.95;;
20697;SDS011;10508;50.956;4.640;2023-03-05T03:50:00;6.75;;;2.72;;
20697;SDS011;10508;50.956;4.640;2023-03-05T03:52:25;5.20;;;2.75;;
20697;SDS011;10508;50.956;4.640;2023-03-05T03:54:51;7.95;;;3.00;;
20697;SDS011;10508;50.956;4.640;2023-03-05T03:57:19;10.30;;;3.25;;
20697;SDS011;10508;50.956;4.640;2023-03-05T03:59:45;7.72;;;3.42;;
20697;SDS011;10508;50.956;4.640;2023-03-05T04:02:11;8.10;;;3.17;;
20697;SDS011;10508;50.956;4.640;2023-03-05T04:04:36;6.82;;;2.78;;
20697;SDS011;10508;50.956;4.640;2023-03-05T04:07:02;11.48;;;3.53;;
20697;SDS011;10508;50.956;4.640;2023-03-05T04:09:27;12.15;;;3.50;;
20697;SDS011;10508;50.956;4.640;2023-03-05T04:11:53;10.07;;;3.63;;
20697;SDS011;10508;50.956;4.640;2023-03-05T04:14:19;8.40;;;3.67;;
20697;SDS011;10508;50.956;4.640;2023-03-05T04:16:45;6.13;;;3.30;;
20697;SDS011;10508;50.956;4.640;2023-03-05T04:19:10;9.90;;;3.45;;
20697;SDS011;10508;50.956;4.640;2023-03-05T04:21:36;8.27;;;3.30;;
20697;SDS011;10508;50.956;4.640;2023-03-05T04:24:02;7.70;;;3.10;;
20697;SDS011;10508;50.956;4.640;2023-03-05T04:26:27;7.80;;;3.25;;
20697;SDS011;10508;50.956;4.640;2023-03-05T04:28:53;10.05;;;3.08;;
20697;SDS011;10508;50.956;4.640;2023-03-05T04:31:19;7.18;;;3.20;;
20697;SDS011;10508;50.956;4.640;2023-03-05T04:33:44;9.00;;;3.42;;
20697;SDS011;10508;50.956;4.640;2023-03-05T04:36:10;9.70;;;2.97;;
20697;SDS011;10508;50.956;4.640;2023-03-05T04:38:36;7.00;;;3.45;;
20697;SDS011;10508;50.956;4.640;2023-03-05T04:41:01;9.05;;;4.07;;
20697;SDS011;10508;50.956;4.640;2023-03-05T04:43:27;7.18;;;2.70;;
20697;SDS011;10508;50.956;4.640;2023-03-05T04:45:54;5.57;;;3.13;;
20697;SDS011;10508;50.956;4.640;2023-03-05T04:48:20;4.35;;;2.55;;
20697;SDS011;10508;50.956;4.640;2023-03-05T04:50:45;8.43;;;2.92;;
20697;SDS011;10508;50.956;4.640;2023-03-05T04:53:11;16.33;;;4.35;;
20697;SDS011;10508;50.956;4.640;2023-03-05T04:55:36;15.27;;;3.75;;
20697;SDS011;10508;50.956;4.640;2023-03-05T04:58:02;10.27;;;3.15;;
20697;SDS011;10508;50.956;4.640;2023-03-05T05:00:28;6.80;;;2.95;;
20697;SDS011;10508;50.956;4.640;2023-03-05T05:02:54;7.63;;;3.55;;
20697;SDS011;10508;50.956;4.640;2023-03-05T05:05:20;9.93;;;3.42;;
20697;SDS011;10508;50.956;4.640;2023-03-05T05:07:48;9.40;;;3.08;;
20697;SDS011;10508;50.956;4.640;2023-03-05T05:10:14;8.25;;;3.22;;
20697;SDS011;10508;50.956;4.640;2023-03-05T05:12:40;6.30;;;2.92;;
20697;SDS011;10508;50.956;4.640;2023-03-05T05:15:06;9.93;;;3.13;;
20697;SDS011;10508;50.956;4.640;2023-03-05T05:17:51;9.23;;;3.10;;
20697;SDS011;10508;50.956;4.640;2023-03-05T05:20:17;10.57;;;4.18;;
20697;SDS011;10508;50.956;4.640;2023-03-05T05:22:56;10.80;;;3.22;;
20697;SDS011;10508;50.956;4.640;2023-03-05T05:25:21;6.88;;;3.45;;
20697;SDS011;10508;50.956;4.640;2023-03-05T05:27:47;6.95;;;3.38;;
20697;SDS011;10508;50.956;4.640;2023-03-05T05:30:12;13.18;;;4.53;;
20697;SDS011;10508;50.956;4.640;2023-03-05T05:32:38;8.27;;;3.25;;
20697;SDS011;10508;50.956;4.640;2023-03-05T05:35:04;10.77;;;3.35;;
20697;SDS011;10508;50.956;4.640;2023-03-05T05:37:30;9.60;;;3.58;;
20697;SDS011;10508;50.956;4.640;2023-03-05T05:39:55;10.50;;;3.90;;
20697;SDS011;10508;50.956;4.640;2023-03-05T05:42:22;9.10;;;3.85;;
20697;SDS011;10508;50.956;4.640;2023-03-05T05:44:49;7.15;;;3.40;;
20697;SDS011;10508;50.956;4.640;2023-03-05T05:47:15;9.02;;;3.40;;
20697;SDS011;10508;50.956;4.640;2023-03-05T05:49:41;9.77;;;4.25;;
20697;SDS011;10508;50.956;4.640;2023-03-05T05:52:07;8.10;;;3.90;;
20697;SDS011;10508;50.956;4.640;2023-03-05T05:54:33;5.95;;;3.30;;
20697;SDS011;10508;50.956;4.640;2023-03-05T05:56:59;8.82;;;3.83;;
20697;SDS011;10508;50.956;4.640;2023-03-05T05:59:24;12.00;;;3.58;;
20697;SDS011;10508;50.956;4.640;2023-03-05T06:01:50;11.90;;;3.92;;
20697;SDS011;10508;50.956;4.640;2023-03-05T06:04:16;5.78;;;3.25;;
20697;SDS011;10508;50.956;4.640;2023-03-05T06:06:42;12.32;;;3.45;;
20697;SDS011;10508;50.956;4.640;2023-03-05T06:09:07;9.40;;;3.38;;
20697;SDS011;10508;50.956;4.640;2023-03-05T06:11:33;8.57;;;3.50;;
20697;SDS011;10508;50.956;4.640;2023-03-05T06:13:58;7.00;;;3.47;;
20697;SDS011;10508;50.956;4.640;2023-03-05T06:16:26;11.77;;;3.50;;
20697;SDS011;10508;50.956;4.640;2023-03-05T06:18:52;7.32;;;3.47;;
20697;SDS011;10508;50.956;4.640;2023-03-05T06:21:18;11.98;;;4.30;;
20697;SDS011;10508;50.956;4.640;2023-03-05T06:23:45;8.02;;;3.67;;
20697;SDS011;10508;50.956;4.640;2023-03-05T06:26:13;8.10;;;3.25;;
20697;SDS011;10508;50.956;4.640;2023-03-05T06:28:40;9.20;;;3.85;;
20697;SDS011;10508;50.956;4.640;2023-03-05T06:31:07;15.95;;;4.20;;
20697;SDS011;10508;50.956;4.640;2023-03-05T06:33:37;15.10;;;4.80;;
20697;SDS011;10508;50.956;4.640;2023-03-05T06:36:04;7.10;;;3.97;;
20697;SDS011;10508;50.956;4.640;2023-03-05T06:38:31;11.35;;;4.53;;
20697;SDS011;10508;50.956;4.640;2023-03-05T06:41:01;9.70;;;4.68;;
20697;SDS011;10508;50.956;4.640;2023-03-05T06:43:30;12.23;;;5.03;;
20697;SDS011;10508;50.956;4.640;2023-03-05T06:46:03;9.07;;;4.63;;
20697;SDS011;10508;50.956;4.640;2023-03-05T06:48:46;14.43;;;4.47;;
20697;SDS011;10508;50.956;4.640;2023-03-05T06:51:19;11.85;;;5.30;;
20697;SDS011;10508;50.956;4.640;2023-03-05T06:53:47;10.05;;;4.50;;
20697;SDS011;10508;50.956;4.640;2023-03-05T06:56:13;11.27;;;4.18;;
20697;SDS011;10508;50.956;4.640;2023-03-05T06:58:40;9.80;;;4.00;;
20697;SDS011;10508;50.956;4.640;2023-03-05T07:01:08;10.57;;;4.57;;
20697;SDS011;10508;50.956;4.640;2023-03-05T07:03:34;10.52;;;4.20;;
20697;SDS011;10508;50.956;4.640;2023-03-05T07:06:03;12.18;;;4.75;;
20697;SDS011;10508;50.956;4.640;2023-03-05T07:08:34;9.40;;;4.80;;
20697;SDS011;10508;50.956;4.640;2023-03-05T07:11:00;11.73;;;3.85;;
20697;SDS011;10508;50.956;4.640;2023-03-05T07:13:26;13.48;;;5.22;;
20697;SDS011;10508;50.956;4.640;2023-03-05T07:15:52;12.23;;;4.72;;
20697;SDS011;10508;50.956;4.640;2023-03-05T07:18:18;14.38;;;5.00;;
20697;SDS011;10508;50.956;4.640;2023-03-05T07:20:44;11.60;;;4.65;;
20697;SDS011;10508;50.956;4.640;2023-03-05T07:23:10;9.57;;;4.40;;
20697;SDS011;10508;50.956;4.640;2023-03-05T07:25:35;11.90;;;4.38;;
20697;SDS011;10508;50.956;4.640;2023-03-05T07:28:02;11.70;;;4.65;;
20697;SDS011;10508;50.956;4.640;2023-03-05T07:30:32;10.38;;;4.32;;
20697;SDS011;10508;50.956;4.640;2023-03-05T07:32:58;16.25;;;4.18;;
20697;SDS011;10508;50.956;4.640;2023-03-05T07:35:24;9.35;;;4.38;;
20697;SDS011;10508;50.956;4.640;2023-03-05T07:37:50;8.60;;;4.30;;
20697;SDS011;10508;50.956;4.640;2023-03-05T07:40:16;7.88;;;4.10;;
20697;SDS011;10508;50.956;4.640;2023-03-05T07:42:42;10.60;;;4.10;;
20697;SDS011;10508;50.956;4.640;2023-03-05T07:45:08;10.07;;;3.90;;
20697;SDS011;10508;50.956;4.640;2023-03-05T07:47:34;9.88;;;4.00;;
20697;SDS011;10508;50.956;4.640;2023-03-05T07:50:00;15.40;;;4.82;;
20697;SDS011;10508;50.956;4.640;2023-03-05T07:52:27;8.50;;;4.10;;
20697;SDS011;10508;50.956;4.640;2023-03-05T07:54:52;5.97;;;3.55;;
20697;SDS011;10508;50.956;4.640;2023-03-05T07:57:18;9.27;;;3.60;;
20697;SDS011;10508;50.956;4.640;2023-03-05T07:59:44;7.38;;;3.40;;
20697;SDS011;10508;50.956;4.640;2023-03-05T08:02:10;8.85;;;3.65;;
20697;SDS011;10508;50.956;4.640;2023-03-05T08:04:37;9.40;;;4.07;;
20697;SDS011;10508;50.956;4.640;2023-03-05T08:07:03;7.68;;;3.85;;
20697;SDS011;10508;50.956;4.640;2023-03-05T08:09:28;9.05;;;3.35;;
20697;SDS011;10508;50.956;4.640;2023-03-05T08:11:54;9.98;;;3.78;;
20697;SDS011;10508;50.956;4.640;2023-03-05T08:14:20;10.95;;;3.53;;
20697;SDS011;10508;50.956;4.640;2023-03-05T08:16:46;7.13;;;3.47;;
20697;SDS011;10508;50.956;4.640;2023-03-05T08:19:16;7.07;;;3.35;;
20697;SDS011;10508;50.956;4.640;2023-03-05T08:21:43;6.65;;;3.60;;
20697;SDS011;10508;50.956;4.640;2023-03-05T08:24:10;12.15;;;3.67;;
20697;SDS011;10508;50.956;4.640;2023-03-05T08:26:37;6.70;;;2.78;;
20697;SDS011;10508;50.956;4.640;2023-03-05T08:29:04;5.85;;;3.08;;
20697;SDS011;10508;50.956;4.640;2023-03-05T08:31:34;6.28;;;2.55;;
20697;SDS011;10508;50.956;4.640;2023-03-05T08:34:00;7.10;;;2.42;;
20697;SDS011;10508;50.956;4.640;2023-03-05T08:36:27;8.55;;;2.90;;
20697;SDS011;10508;50.956;4.640;2023-03-05T08:38:53;7.13;;;3.00;;
20697;SDS011;10508;50.956;4.640;2023-03-05T08:41:19;7.65;;;2.70;;
20697;SDS011;10508;50.956;4.640;2023-03-05T08:43:45;7.07;;;3.00;;
20697;SDS011;10508;50.956;4.640;2023-03-05T08:46:12;6.22;;;3.05;;
20697;SDS011;10508;50.956;4.640;2023-03-05T08:48:39;6.70;;;2.67;;
20697;SDS011;10508;50.956;4.640;2023-03-05T08:51:06;9.13;;;2.55;;
20697;SDS011;10508;50.956;4.640;2023-03-05T08:53:34;5.10;;;2.17;;
20697;SDS011;10508;50.956;4.640;2023-03-05T08:56:18;5.13;;;2.50;;
20697;SDS011;10508;50.956;4.640;2023-03-05T08:58:43;8.30;;;3.05;;
20697;SDS011;10508;50.956;4.640;2023-03-05T09:01:12;8.40;;;3.53;;
20697;SDS011;10508;50.956;4.640;2023-03-05T09:03:39;5.40;;;3.53;;
20697;SDS011;10508;50.956;4.640;2023-03-05T09:06:06;7.00;;;3.78;;
20697;SDS011;10508;50.956;4.640;2023-03-05T09:08:34;8.35;;;4.25;;
20697;SDS011;10508;50.956;4.640;2023-03-05T09:11:01;7.70;;;3.72;;
20697;SDS011;10508;50.956;4.640;2023-03-05T09:13:28;9.57;;;3.78;;
20697;SDS011;10508;50.956;4.640;2023-03-05T09:15:57;6.82;;;3.58;;
20697;SDS011;10508;50.956;4.640;2023-03-05T09:18:25;12.55;;;4.25;;
20697;SDS011;10508;50.956;4.640;2023-03-05T09:20:51;8.05;;;4.35;;
20697;SDS011;10508;50.956;4.640;2023-03-05T09:23:17;8.70;;;4.25;;
20697;SDS011;10508;50.956;4.640;2023-03-05T09:25:44;7.32;;;4.15;;
20697;SDS011;10508;50.956;4.640;2023-03-05T09:28:10;7.07;;;3.83;;
20697;SDS011;10508;50.956;4.640;2023-03-05T09:30:35;7.85;;;4.07;;
20697;SDS011;10508;50.956;4.640;2023-03-05T09:33:02;9.02;;;3.80;;
20697;SDS011;10508;50.956;4.640;2023-03-05T09:35:28;7.85;;;3.95;;
20697;SDS011;10508;50.956;4.640;2023-03-05T09:37:54;7.57;;;3.53;;
20697;SDS011;10508;50.956;4.640;2023-03-05T09:40:20;7.50;;;3.88;;
20697;SDS011;10508;50.956;4.640;2023-03-05T09:51:01;7.50;;;2.80;;
20697;SDS011;10508;50.956;4.640;2023-03-05T09:55:57;2.40;;;1.58;;
20697;SDS011;10508;50.956;4.640;2023-03-05T09:58:34;8.48;;;2.10;;
20697;SDS011;10508;50.956;4.640;2023-03-05T10:01:00;4.15;;;1.95;;
20697;SDS011;10508;50.956;4.640;2023-03-05T10:03:33;3.40;;;1.65;;
20697;SDS011;10508;50.956;4.640;2023-03-05T10:08:45;3.00;;;1.48;;
20697;SDS011;10508;50.956;4.640;2023-03-05T10:11:56;3.45;;;1.60;;
20697;SDS011;10508;50.956;4.640;2023-03-05T10:14:31;3.20;;;1.42;;
20697;SDS011;10508;50.956;4.640;2023-03-05T10:17:00;1.30;;;0.80;;
20697;SDS011;10508;50.956;4.640;2023-03-05T10:27:43;1.63;;;0.82;;
20697;SDS011;10508;50.956;4.640;2023-03-05T10:33:14;1.75;;;1.10;;
20697;SDS011;10508;50.956;4.640;2023-03-05T10:36:09;3.47;;;2.08;;
20697;SDS011;10508;50.956;4.640;2023-03-05T10:42:01;3.03;;;2.38;;
20697;SDS011;10508;50.956;4.640;2023-03-05T10:44:47;2.95;;;1.80;;
20697;SDS011;10508;50.956;4.640;2023-03-05T10:49:42;3.08;;;1.98;;
20697;SDS011;10508;50.956;4.640;2023-03-05T10:52:19;2.40;;;1.30;;
20697;SDS011;10508;50.956;4.640;2023-03-05T10:54:55;2.67;;;1.33;;
20697;SDS011;10508;50.956;4.640;2023-03-05T10:57:22;4.78;;;1.52;;
20697;SDS011;10508;50.956;4.640;2023-03-05T10:59:52;2.15;;;1.17;;
20697;SDS011;10508;50.956;4.640;2023-03-05T11:02:19;3.40;;;1.15;;
20697;SDS011;10508;50.956;4.640;2023-03-05T11:04:46;3.20;;;1.23;;
20697;SDS011;10508;50.956;4.640;2023-03-05T11:09:41;2.38;;;1.63;;
20697;SDS011;10508;50.956;4.640;2023-03-05T11:12:15;1.65;;;1.00;;
20697;SDS011;10508;50.956;4.640;2023-03-05T11:17:35;3.85;;;1.20;;
20697;SDS011;10508;50.956;4.640;2023-03-05T11:23:03;1.55;;;0.90;;
20697;SDS011;10508;50.956;4.640;2023-03-05T11:25:29;3.30;;;1.50;;
20697;SDS011;10508;50.956;4.640;2023-03-05T11:27:57;4.13;;;1.48;;
20697;SDS011;10508;50.956;4.640;2023-03-05T11:30:28;2.90;;;1.50;;
20697;SDS011;10508;50.956;4.640;2023-03-05T11:33:13;2.55;;;1.40;;
20697;SDS011;10508;50.956;4.640;2023-03-05T11:35:43;1.55;;;1.02;;
20697;SDS011;10508;50.956;4.640;2023-03-05T11:38:17;2.47;;;1.30;;
20697;SDS011;10508;50.956;4.640;2023-03-05T11:40:48;2.05;;;1.00;;
20697;SDS011;10508;50.956;4.640;2023-03-05T11:43:17;1.85;;;0.80;;
20697;SDS011;10508;50.956;4.640;2023-03-05T11:45:44;2.65;;;1.05;;
20697;SDS011;10508;50.956;4.640;2023-03-05T11:48:16;1.23;;;0.70;;
20697;SDS011;10508;50.956;4.640;2023-03-05T11:50:45;3.28;;;1.00;;
20697;SDS011;10508;50.956;4.640;2023-03-05T11:53:27;2.38;;;0.70;;
20697;SDS011;10508;50.956;4.640;2023-03-05T11:56:10;4.05;;;1.00;;
20697;SDS011;10508;50.956;4.640;2023-03-05T11:58:45;1.38;;;0.93;;
20697;SDS011;10508;50.956;4.640;2023-03-05T12:01:26;1.50;;;1.08;;
20697;SDS011;10508;50.956;4.640;2023-03-05T12:03:55;1.15;;;0.60;;
20697;SDS011;10508;50.956;4.640;2023-03-05T12:06:29;5.88;;;0.90;;
20697;SDS011;10508;50.956;4.640;2023-03-05T12:08:58;2.33;;;1.00;;
20697;SDS011;10508;50.956;4.640;2023-03-05T12:11:31;1.80;;;0.80;;
20697;SDS011;10508;50.956;4.640;2023-03-05T12:16:56;4.85;;;0.88;;
20697;SDS011;10508;50.956;4.640;2023-03-05T12:19:57;2.97;;;1.25;;
20697;SDS011;10508;50.956;4.640;2023-03-05T12:22:33;1.20;;;0.82;;
20697;SDS011;10508;50.956;4.640;2023-03-05T12:27:56;3.35;;;0.85;;
20697;SDS011;10508;50.956;4.640;2023-03-05T12:33:28;3.33;;;0.77;;
20697;SDS011;10508;50.956;4.640;2023-03-05T12:38:56;3.15;;;1.50;;
20697;SDS011;10508;50.956;4.640;2023-03-05T12:49:00;2.33;;;1.42;;
20697;SDS011;10508;50.956;4.640;2023-03-05T12:51:48;5.90;;;1.60;;
20697;SDS011;10508;50.956;4.640;2023-03-05T12:57:00;2.67;;;1.30;;
20697;SDS011;10508;50.956;4.640;2023-03-05T12:59:46;3.55;;;1.70;;
20697;SDS011;10508;50.956;4.640;2023-03-05T13:02:26;3.50;;;1.35;;
20697;SDS011;10508;50.956;4.640;2023-03-05T13:04:58;8.85;;;2.15;;
20697;SDS011;10508;50.956;4.640;2023-03-05T13:07:27;3.70;;;1.85;;
20697;SDS011;10508;50.956;4.640;2023-03-05T13:09:54;3.60;;;2.08;;
20697;SDS011;10508;50.956;4.640;2023-03-05T13:12:22;6.22;;;2.47;;
20697;SDS011;10508;50.956;4.640;2023-03-05T13:14:54;4.57;;;2.80;;
20697;SDS011;10508;50.956;4.640;2023-03-05T13:20:27;9.13;;;3.70;;
20697;SDS011;10508;50.956;4.640;2023-03-05T13:23:47;8.63;;;3.55;;
20697;SDS011;10508;50.956;4.640;2023-03-05T13:28:37;4.65;;;3.05;;
20697;SDS011;10508;50.956;4.640;2023-03-05T13:31:14;3.97;;;2.50;;
20697;SDS011;10508;50.956;4.640;2023-03-05T13:33:48;3.47;;;1.75;;
20697;SDS011;10508;50.956;4.640;2023-03-05T13:36:21;5.25;;;1.95;;
20697;SDS011;10508;50.956;4.640;2023-03-05T13:38:50;2.95;;;1.58;;
20697;SDS011;10508;50.956;4.640;2023-03-05T13:41:17;3.30;;;1.38;;
20697;SDS011;10508;50.956;4.640;2023-03-05T13:43:48;1.70;;;1.10;;
20697;SDS011;10508;50.956;4.640;2023-03-05T13:46:22;9.35;;;1.65;;
20697;SDS011;10508;50.956;4.640;2023-03-05T13:48:50;3.47;;;1.23;;
20697;SDS011;10508;50.956;4.640;2023-03-05T13:51:16;1.70;;;0.90;;
20697;SDS011;10508;50.956;4.640;2023-03-05T13:53:42;3.63;;;1.35;;
20697;SDS011;10508;50.956;4.640;2023-03-05T13:56:12;5.63;;;1.30;;
20697;SDS011;10508;50.956;4.640;2023-03-05T13:58:53;3.40;;;1.27;;
20697;SDS011;10508;50.956;4.640;2023-03-05T14:01:30;2.40;;;1.17;;
20697;SDS011;10508;50.956;4.640;2023-03-05T14:04:34;1.77;;;1.02;;
20697;SDS011;10508;50.956;4.640;2023-03-05T14:09:48;2.03;;;0.90;;
20697;SDS011;10508;50.956;4.640;2023-03-05T14:12:37;3.53;;;1.20;;
20697;SDS011;10508;50.956;4.640;2023-03-05T14:15:19;2.17;;;1.05;;
20697;SDS011;10508;50.956;4.640;2023-03-05T14:20:40;2.53;;;1.02;;
20697;SDS011;10508;50.956;4.640;2023-03-05T14:23:34;4.20;;;1.67;;
20697;SDS011;10508;50.956;4.640;2023-03-05T14:28:49;1.90;;;1.20;;
20697;SDS011;10508;50.956;4.640;2023-03-05T14:31:16;2.55;;;1.48;;
20697;SDS011;10508;50.956;4.640;2023-03-05T14:33:43;2.33;;;1.50;;
20697;SDS011;10508;50.956;4.640;2023-03-05T14:36:09;2.78;;;1.60;;
20697;SDS011;10508;50.956;4.640;2023-03-05T14:38:38;4.75;;;1.88;;
20697;SDS011;10508;50.956;4.640;2023-03-05T14:43:56;2.97;;;1.50;;
20697;SDS011;10508;50.956;4.640;2023-03-05T14:46:21;1.90;;;1.70;;
20697;SDS011;10508;50.956;4.640;2023-03-05T14:48:47;6.78;;;2.90;;
20697;SDS011;10508;50.956;4.640;2023-03-05T14:51:13;8.32;;;3.75;;
20697;SDS011;10508;50.956;4.640;2023-03-05T14:53:43;3.38;;;1.73;;
20697;SDS011;10508;50.956;4.640;2023-03-05T14:56:15;4.18;;;2.22;;
20697;SDS011;10508;50.956;4.640;2023-03-05T14:58:46;4.90;;;2.38;;
20697;SDS011;10508;50.956;4.640;2023-03-05T15:01:11;9.90;;;2.28;;
20697;SDS011;10508;50.956;4.640;2023-03-05T15:03:37;4.22;;;2.20;;
20697;SDS011;10508;50.956;4.640;2023-03-05T15:06:05;4.60;;;2.75;;
20697;SDS011;10508;50.956;4.640;2023-03-05T15:08:32;5.22;;;2.65;;
20697;SDS011;10508;50.956;4.640;2023-03-05T15:10:58;5.72;;;3.03;;
20697;SDS011;10508;50.956;4.640;2023-03-05T15:13:25;5.13;;;2.88;;
20697;SDS011;10508;50.956;4.640;2023-03-05T15:15:51;6.28;;;3.30;;
20697;SDS011;10508;50.956;4.640;2023-03-05T15:18:18;9.85;;;3.55;;
20697;SDS011;10508;50.956;4.640;2023-03-05T15:20:45;10.65;;;3.60;;
20697;SDS011;10508;50.956;4.640;2023-03-05T15:23:18;8.90;;;3.58;;
20697;SDS011;10508;50.956;4.640;2023-03-05T15:25:44;8.02;;;3.80;;
20697;SDS011;10508;50.956;4.640;2023-03-05T15:28:10;5.95;;;3.28;;
20697;SDS011;10508;50.956;4.640;2023-03-05T15:30:36;6.45;;;3.28;;
20697;SDS011;10508;50.956;4.640;2023-03-05T15:33:05;10.35;;;3.63;;
20697;SDS011;10508;50.956;4.640;2023-03-05T15:35:32;4.40;;;2.65;;
20697;SDS011;10508;50.956;4.640;2023-03-05T15:37:58;7.28;;;3.30;;
20697;SDS011;10508;50.956;4.640;2023-03-05T15:40:24;4.68;;;2.60;;
20697;SDS011;10508;50.956;4.640;2023-03-05T15:42:52;4.63;;;2.60;;
20697;SDS011;10508;50.956;4.640;2023-03-05T15:45:18;7.50;;;2.15;;
20697;SDS011;10508;50.956;4.640;2023-03-05T15:47:44;3.72;;;2.38;;
20697;SDS011;10508;50.956;4.640;2023-03-05T15:50:12;3.20;;;1.98;;
20697;SDS011;10508;50.956;4.640;2023-03-05T15:52:38;10.00;;;2.13;;
20697;SDS011;10508;50.956;4.640;2023-03-05T15:55:03;5.22;;;2.00;;
20697;SDS011;10508;50.956;4.640;2023-03-05T15:57:29;4.38;;;1.95;;
20697;SDS011;10508;50.956;4.640;2023-03-05T16:00:05;3.47;;;1.95;;
20697;SDS011;10508;50.956;4.640;2023-03-05T16:02:33;7.57;;;1.90;;
20697;SDS011;10508;50.956;4.640;2023-03-05T16:04:58;3.53;;;1.70;;
20697;SDS011;10508;50.956;4.640;2023-03-05T16:07:24;5.75;;;1.95;;
20697;SDS011;10508;50.956;4.640;2023-03-05T16:09:50;3.92;;;1.70;;
20697;SDS011;10508;50.956;4.640;2023-03-05T16:12:18;4.78;;;2.13;;